Time;durP1;ratioP1;P1;durP2;ratioP2;P2;SDS_P1;SDS_P2;PMS_P1;PMS_P2;Temp;Humidity;BMP_temperature;BMP_pressure;BME280_temperature;BME280_humidity;BME280_pressure;Samples;Min_cycle;Max_cycle;Signal;HPM_P1;HPM_P2
2024/03/08 00:00:12;;;;;;;15.98;13.90;;;6.40;93.40;;;;;;4893935;29;20237;-77
2024/03/08 00:02:50;;;;;;;15.35;12.73;;;6.40;93.60;;;;;;4883323;29;20176;-77
2024/03/08 00:05:18;;;;;;;16.83;12.30;;;6.30;93.80;;;;;;4884582;29;20182;-77
2024/03/08 00:07:43;;;;;;;15.75;12.18;;;6.30;93.70;;;;;;4887615;29;20193;-77
2024/03/08 00:10:11;;;;;;;13.80;11.67;;;6.30;93.90;;;;;;4885982;29;20243;-77
2024/03/08 00:12:44;;;;;;;15.35;12.52;;;6.30;94.00;;;;;;4896783;29;20222;-77
2024/03/08 00:15:11;;;;;;;14.15;12.50;;;6.20;94.00;;;;;;4891333;29;20183;-77
2024/03/08 00:17:38;;;;;;;15.15;13.20;;;6.20;94.00;;;;;;4897240;29;20213;-77
2024/03/08 00:20:08;;;;;;;18.45;12.38;;;6.20;94.10;;;;;;4909111;29;20347;-77
2024/03/08 00:22:34;;;;;;;15.00;12.65;;;6.20;94.20;;;;;;4908549;29;20616;-77
2024/03/08 00:25:01;;;;;;;14.73;11.88;;;6.20;94.30;;;;;;4912505;29;20688;-77
2024/03/08 00:27:27;;;;;;;17.85;13.02;;;6.20;94.30;;;;;;4905058;29;20170;-77
2024/03/08 00:29:52;;;;;;;15.30;11.80;;;6.20;94.40;;;;;;4889752;29;20231;-78
2024/03/08 00:32:18;;;;;;;16.10;12.63;;;6.10;94.50;;;;;;4880989;29;20653;-77
2024/03/08 00:34:44;;;;;;;15.50;12.67;;;6.10;94.40;;;;;;4883860;29;20202;-77
2024/03/08 00:37:10;;;;;;;14.37;12.47;;;6.10;94.60;;;;;;4887138;29;20202;-77
2024/03/08 00:39:35;;;;;;;17.47;13.50;;;6.10;94.50;;;;;;4876079;29;20214;-77
2024/03/08 00:42:01;;;;;;;14.97;12.80;;;6.10;94.90;;;;;;4897819;29;20606;-77
2024/03/08 00:44:27;;;;;;;19.90;12.70;;;6.10;94.80;;;;;;4885042;29;20190;-77
2024/03/08 00:46:52;;;;;;;17.23;13.60;;;6.00;94.90;;;;;;4894276;29;20185;-77
2024/03/08 00:49:18;;;;;;;16.60;13.30;;;6.00;94.90;;;;;;4891241;29;20253;-77
2024/03/08 00:51:44;;;;;;;14.53;12.73;;;6.00;95.10;;;;;;4911728;29;20174;-77
2024/03/08 00:54:09;;;;;;;13.27;10.60;;;6.00;95.00;;;;;;4890426;29;20230;-77
2024/03/08 00:56:35;;;;;;;17.93;13.20;;;6.00;95.00;;;;;;4889868;29;20553;-77
2024/03/08 00:59:02;;;;;;;17.43;13.10;;;6.00;95.20;;;;;;4895773;29;20545;-77
2024/03/08 01:01:28;;;;;;;14.68;12.02;;;5.90;95.30;;;;;;4911352;29;20205;-77
2024/03/08 01:03:54;;;;;;;16.13;13.25;;;5.90;95.40;;;;;;4857489;29;20191;-77
2024/03/08 01:06:20;;;;;;;14.37;12.50;;;5.90;95.50;;;;;;4892619;29;20179;-77
2024/03/08 01:08:45;;;;;;;15.80;13.27;;;5.90;95.60;;;;;;4908318;29;20203;-77
2024/03/08 01:11:13;;;;;;;16.07;13.20;;;5.80;95.50;;;;;;4897299;29;20184;-77
2024/03/08 01:13:39;;;;;;;20.95;13.68;;;5.80;95.80;;;;;;4897132;29;20690;-77
2024/03/08 01:16:05;;;;;;;20.07;14.80;;;5.80;95.70;;;;;;4892784;29;20214;-77
2024/03/08 01:18:31;;;;;;;16.05;13.10;;;5.80;95.70;;;;;;4904817;29;20362;-77
2024/03/08 01:20:57;;;;;;;15.00;12.75;;;5.80;95.80;;;;;;4905086;29;20261;-77
2024/03/08 01:23:24;;;;;;;20.40;14.17;;;5.80;95.90;;;;;;4871849;29;20206;-77
2024/03/08 01:25:56;;;;;;;14.98;12.35;;;5.80;96.10;;;;;;4911154;29;20234;-77
2024/03/08 01:28:24;;;;;;;16.60;13.52;;;5.70;95.90;;;;;;4895998;29;20186;-77
2024/03/08 01:30:55;;;;;;;17.35;14.40;;;5.70;96.10;;;;;;4887941;29;20596;-78
2024/03/08 01:33:25;;;;;;;20.20;15.65;;;5.70;96.20;;;;;;4897128;29;20194;-77
2024/03/08 01:35:52;;;;;;;19.00;14.45;;;5.60;96.90;;;;;;4892656;29;20619;-77
2024/03/08 01:38:18;;;;;;;17.60;13.75;;;5.70;96.60;;;;;;4890115;29;20217;-77
2024/03/08 01:40:44;;;;;;;18.33;14.60;;;5.60;96.60;;;;;;4888792;29;20210;-77
2024/03/08 01:43:36;;;;;;;16.70;14.10;;;5.70;96.70;;;;;;4889289;29;20576;-77
2024/03/08 01:46:03;;;;;;;17.35;14.10;;;5.50;97.80;;;;;;4892642;29;20658;-77
2024/03/08 01:48:29;;;;;;;18.55;14.02;;;5.60;97.20;;;;;;4890207;29;20591;-77
2024/03/08 01:50:57;;;;;;;16.63;13.70;;;5.60;97.30;;;;;;4894165;29;20418;-77
2024/03/08 01:53:24;;;;;;;15.13;12.00;;;5.60;97.20;;;;;;4884170;29;20186;-77
2024/03/08 01:55:53;;;;;;;19.45;14.48;;;5.60;97.20;;;;;;4906892;29;20186;-77
2024/03/08 01:58:21;;;;;;;16.30;14.07;;;5.60;97.30;;;;;;4891870;29;20210;-77
2024/03/08 02:00:51;;;;;;;15.63;13.20;;;5.50;97.40;;;;;;4890723;29;20572;-78
2024/03/08 02:03:17;;;;;;;18.08;14.18;;;5.50;97.40;;;;;;4891384;29;20190;-77
2024/03/08 02:05:43;;;;;;;16.35;12.68;;;5.50;97.30;;;;;;4890167;29;20178;-78
2024/03/08 02:08:14;;;;;;;17.10;12.90;;;5.50;97.40;;;;;;4895615;29;20257;-77
2024/03/08 02:10:44;;;;;;;15.75;12.90;;;5.50;97.50;;;;;;4887679;29;20590;-77
2024/03/08 02:13:10;;;;;;;18.73;10.98;;;5.50;97.60;;;;;;4902229;23;20225;-78
2024/03/08 02:15:56;;;;;;;18.40;12.10;;;5.50;97.60;;;;;;4937381;29;20690;-78
2024/03/08 02:18:23;;;;;;;15.35;11.48;;;5.50;97.80;;;;;;4935017;29;20191;-77
2024/03/08 02:21:03;;;;;;;15.02;12.32;;;5.50;97.70;;;;;;4916775;29;20213;-78
2024/03/08 02:23:29;;;;;;;18.42;13.18;;;5.40;97.80;;;;;;4936455;29;20219;-76
2024/03/08 02:25:56;;;;;;;16.15;11.90;;;5.40;98.10;;;;;;4951780;29;20185;-76
2024/03/08 02:28:25;;;;;;;18.42;12.77;;;5.40;97.90;;;;;;4937547;29;20678;-77
2024/03/08 02:30:51;;;;;;;16.10;12.32;;;5.40;98.10;;;;;;4960914;28;20220;-77
2024/03/08 02:33:17;;;;;;;22.77;14.05;;;5.40;98.00;;;;;;4966477;29;20189;-77
2024/03/08 02:35:47;;;;;;;19.17;14.40;;;5.40;98.20;;;;;;4943853;29;20173;-77
2024/03/08 02:38:21;;;;;;;17.50;12.60;;;5.30;98.60;;;;;;4922654;29;20196;-77
2024/03/08 02:40:49;;;;;;;15.93;13.07;;;5.30;98.40;;;;;;4938058;29;20220;-77
2024/03/08 02:43:19;;;;;;;14.88;10.65;;;5.30;98.40;;;;;;4952962;29;20252;-76
2024/03/08 02:45:45;;;;;;;20.25;14.25;;;5.30;98.40;;;;;;4957219;29;20169;-76
2024/03/08 02:48:12;;;;;;;17.95;14.60;;;5.30;98.50;;;;;;4940368;29;20161;-76
2024/03/08 02:50:40;;;;;;;17.30;13.57;;;5.30;98.60;;;;;;4956656;28;20276;-76
2024/03/08 02:53:06;;;;;;;16.00;12.82;;;5.30;98.70;;;;;;4956187;29;20215;-76
2024/03/08 02:55:35;;;;;;;19.80;15.27;;;5.30;98.80;;;;;;4956993;29;20168;-77
2024/03/08 02:58:03;;;;;;;15.70;13.00;;;5.30;98.80;;;;;;4956298;29;20172;-78
2024/03/08 03:00:30;;;;;;;16.90;13.38;;;5.30;98.90;;;;;;4956342;29;20277;-75
2024/03/08 03:02:57;;;;;;;16.08;14.00;;;5.30;98.90;;;;;;4955591;29;20223;-76
2024/03/08 03:05:26;;;;;;;16.08;14.27;;;5.30;99.00;;;;;;4958062;28;20168;-76
2024/03/08 03:07:52;;;;;;;17.00;12.45;;;5.30;99.20;;;;;;4957424;29;20188;-76
2024/03/08 03:10:18;;;;;;;18.70;12.98;;;5.30;99.10;;;;;;4957126;29;20232;-77
2024/03/08 03:12:45;;;;;;;21.60;15.80;;;5.30;99.20;;;;;;4957467;29;20193;-76
2024/03/08 03:15:12;;;;;;;18.10;14.43;;;5.30;99.30;;;;;;4965849;29;20603;-76
2024/03/08 03:17:38;;;;;;;17.88;13.60;;;5.20;99.20;;;;;;4935470;29;20185;-76
2024/03/08 03:20:12;;;;;;;19.38;13.85;;;5.30;99.30;;;;;;4935055;29;20214;-76
2024/03/08 03:22:38;;;;;;;17.65;13.65;;;5.20;99.40;;;;;;4954507;28;20190;-77
2024/03/08 03:25:06;;;;;;;14.52;12.23;;;5.20;99.40;;;;;;4957335;28;20189;-76
2024/03/08 03:27:32;;;;;;;17.75;13.80;;;5.20;99.60;;;;;;4956537;29;20185;-76
2024/03/08 03:29:58;;;;;;;22.98;14.95;;;5.20;99.50;;;;;;4956816;28;20177;-77
2024/03/08 03:32:24;;;;;;;17.10;13.83;;;5.20;99.60;;;;;;4957120;28;20185;-76
2024/03/08 03:34:53;;;;;;;20.60;15.30;;;5.20;99.60;;;;;;4941049;29;20654;-76
2024/03/08 03:37:21;;;;;;;15.43;13.18;;;5.20;99.90;;;;;;4957927;28;20584;-76
2024/03/08 03:39:51;;;;;;;19.38;13.60;;;5.20;99.80;;;;;;4955043;29;20220;-76
2024/03/08 03:42:18;;;;;;;16.70;13.23;;;5.20;99.90;;;;;;4957965;29;20206;-76
2024/03/08 03:44:45;;;;;;;20.77;16.00;;;5.20;99.80;;;;;;4961085;28;20276;-77
2024/03/08 03:47:11;;;;;;;17.35;12.63;;;5.20;99.90;;;;;;4960547;29;20177;-76
2024/03/08 03:49:37;;;;;;;17.30;13.10;;;5.10;99.90;;;;;;4944360;29;20237;-76
2024/03/08 03:52:04;;;;;;;20.13;14.00;;;5.10;99.90;;;;;;4961848;29;20165;-76
2024/03/08 03:54:30;;;;;;;14.70;12.07;;;5.10;99.90;;;;;;4966099;28;20219;-76
2024/03/08 03:56:56;;;;;;;17.17;14.10;;;5.10;99.90;;;;;;4957064;29;20173;-75
2024/03/08 03:59:22;;;;;;;16.27;12.80;;;5.10;99.90;;;;;;4948898;29;20215;-76
2024/03/08 04:01:49;;;;;;;20.00;14.97;;;5.10;99.90;;;;;;4940044;29;20181;-76
2024/03/08 04:04:15;;;;;;;21.98;16.02;;;5.10;99.90;;;;;;4953189;29;20197;-75
2024/03/08 04:06:41;;;;;;;18.52;14.05;;;5.10;99.90;;;;;;4948554;29;20183;-76
2024/03/08 04:09:07;;;;;;;17.08;13.77;;;5.00;99.90;;;;;;4932341;29;20176;-76
2024/03/08 04:11:33;;;;;;;18.60;13.50;;;5.10;99.90;;;;;;4931624;29;20181;-76
2024/03/08 04:13:59;;;;;;;18.42;13.85;;;5.10;99.90;;;;;;4949010;29;20220;-77
2024/03/08 04:16:25;;;;;;;18.70;15.10;;;5.10;99.90;;;;;;4957163;29;20189;-76
2024/03/08 04:18:52;;;;;;;17.50;14.65;;;5.10;99.90;;;;;;4959492;29;20189;-76
2024/03/08 04:21:19;;;;;;;14.65;11.88;;;5.00;99.90;;;;;;4950499;29;20225;-77
2024/03/08 04:23:45;;;;;;;23.50;15.63;;;5.00;99.90;;;;;;4940781;29;20249;-77
2024/03/08 04:26:11;;;;;;;21.63;16.10;;;5.00;99.90;;;;;;4936917;29;20206;-76
2024/03/08 04:28:37;;;;;;;21.02;15.35;;;5.00;99.90;;;;;;4919528;29;20170;-76
2024/03/08 04:31:06;;;;;;;20.73;15.68;;;5.00;99.90;;;;;;4935510;29;20192;-76
2024/03/08 04:33:32;;;;;;;15.63;13.27;;;5.00;99.90;;;;;;4935442;29;20209;-76
2024/03/08 04:35:58;;;;;;;20.15;12.63;;;5.00;99.90;;;;;;4937163;29;20655;-76
2024/03/08 04:38:24;;;;;;;15.90;13.47;;;5.00;99.90;;;;;;4936253;29;20188;-76
2024/03/08 04:40:50;;;;;;;18.52;13.80;;;5.00;99.90;;;;;;4939693;29;20540;-76
2024/03/08 04:43:18;;;;;;;16.20;11.30;;;5.10;99.90;;;;;;4935232;29;20200;-76
2024/03/08 04:45:44;;;;;;;23.80;15.70;;;5.00;99.90;;;;;;4934610;29;20288;-77
2024/03/08 04:48:11;;;;;;;16.90;15.15;;;5.00;99.90;;;;;;4934402;29;20187;-76
2024/03/08 04:50:38;;;;;;;18.05;13.90;;;5.00;99.90;;;;;;4934449;29;20178;-76
2024/03/08 04:53:05;;;;;;;18.80;13.68;;;5.00;99.90;;;;;;4941942;29;20200;-76
2024/03/08 04:55:31;;;;;;;19.27;14.65;;;5.00;99.90;;;;;;4934583;29;20224;-76
2024/03/08 04:57:57;;;;;;;17.10;12.67;;;5.00;99.90;;;;;;4934366;29;20608;-76
2024/03/08 05:00:22;;;;;;;18.93;14.00;;;5.00;99.90;;;;;;4949123;28;20272;-76
2024/03/08 05:02:48;;;;;;;16.87;13.10;;;5.00;99.90;;;;;;4935411;29;20219;-76
2024/03/08 05:05:15;;;;;;;20.90;14.20;;;5.00;99.90;;;;;;4935467;29;20280;-76
2024/03/08 05:07:40;;;;;;;17.65;14.38;;;5.00;99.90;;;;;;4935105;29;20181;-76
2024/03/08 05:10:07;;;;;;;19.53;13.50;;;5.00;99.90;;;;;;4933841;29;20338;-75
2024/03/08 05:12:36;;;;;;;14.68;11.98;;;5.00;99.90;;;;;;4934318;29;20631;-75
2024/03/08 05:15:01;;;;;;;15.48;13.00;;;4.90;99.90;;;;;;4919188;29;20205;-78
2024/03/08 05:17:27;;;;;;;18.00;12.13;;;4.90;99.90;;;;;;4935487;29;20173;-75
2024/03/08 05:19:53;;;;;;;17.40;13.83;;;4.90;99.90;;;;;;4933246;29;20213;-76
2024/03/08 05:22:19;;;;;;;17.03;13.13;;;4.90;99.90;;;;;;4934919;29;21154;-76
2024/03/08 05:24:44;;;;;;;17.70;14.80;;;4.90;99.90;;;;;;4935434;29;20203;-76
2024/03/08 05:27:10;;;;;;;15.53;12.90;;;4.90;99.90;;;;;;4935370;29;20173;-76
2024/03/08 05:29:37;;;;;;;15.60;12.70;;;4.90;99.90;;;;;;4933414;29;20172;-76
2024/03/08 05:32:03;;;;;;;18.38;13.48;;;4.90;99.90;;;;;;4935182;29;20643;-76
2024/03/08 05:34:30;;;;;;;15.10;12.38;;;4.90;99.90;;;;;;4917815;29;20220;-76
2024/03/08 05:36:57;;;;;;;19.48;13.88;;;4.80;99.90;;;;;;4917759;29;20361;-76
2024/03/08 05:39:24;;;;;;;18.52;13.07;;;4.80;99.90;;;;;;4932879;29;20177;-78
2024/03/08 05:41:50;;;;;;;17.48;13.57;;;4.80;99.90;;;;;;4917536;29;20185;-76
2024/03/08 05:44:19;;;;;;;18.02;13.88;;;4.90;99.90;;;;;;4933551;29;20220;-77
2024/03/08 05:46:46;;;;;;;19.23;15.15;;;4.90;99.90;;;;;;4939112;29;20179;-76
2024/03/08 05:49:13;;;;;;;15.98;12.82;;;4.80;99.90;;;;;;4960014;28;20185;-76
2024/03/08 05:51:40;;;;;;;18.15;14.07;;;4.80;99.90;;;;;;4944553;29;20268;-76
2024/03/08 05:54:09;;;;;;;14.65;12.25;;;4.90;99.90;;;;;;4935463;29;20283;-76
2024/03/08 05:56:36;;;;;;;26.05;16.17;;;4.80;99.90;;;;;;4946377;29;20276;-76
2024/03/08 05:59:02;;;;;;;20.88;15.27;;;4.80;99.90;;;;;;4943580;29;20221;-76
2024/03/08 06:01:28;;;;;;;17.00;12.57;;;4.80;99.90;;;;;;4933595;29;20303;-76
2024/03/08 06:03:55;;;;;;;18.73;14.52;;;4.80;99.90;;;;;;4933472;29;20660;-75
2024/03/08 06:06:22;;;;;;;19.20;14.40;;;4.80;99.90;;;;;;4934224;29;20621;-76
2024/03/08 06:08:49;;;;;;;19.42;13.95;;;4.80;99.90;;;;;;4936735;29;20295;-76
2024/03/08 06:11:17;;;;;;;21.00;14.52;;;4.80;99.90;;;;;;4932781;29;20185;-77
2024/03/08 06:13:43;;;;;;;19.90;15.10;;;4.80;99.90;;;;;;4940039;29;20220;-77
2024/03/08 06:16:09;;;;;;;19.67;15.15;;;4.80;99.90;;;;;;4952188;28;20251;-77
2024/03/08 06:18:39;;;;;;;20.90;15.82;;;4.90;99.90;;;;;;4916422;29;20730;-77
2024/03/08 06:21:05;;;;;;;23.40;15.10;;;4.90;99.90;;;;;;4900627;29;20205;-76
2024/03/08 06:23:38;;;;;;;17.77;14.73;;;4.90;99.90;;;;;;4938192;29;20244;-77
2024/03/08 06:26:07;;;;;;;17.25;14.70;;;4.90;99.90;;;;;;4942961;29;20284;-76
2024/03/08 06:28:34;;;;;;;16.73;13.93;;;4.90;99.90;;;;;;4932333;29;20192;-76
2024/03/08 06:31:00;;;;;;;21.35;16.65;;;4.90;99.90;;;;;;4916217;29;20181;-77
2024/03/08 06:33:26;;;;;;;21.38;15.57;;;4.90;99.90;;;;;;4921487;29;20677;-76
2024/03/08 06:35:54;;;;;;;17.40;13.57;;;5.00;99.90;;;;;;4937261;29;20269;-77
2024/03/08 06:38:20;;;;;;;16.55;13.98;;;5.00;99.90;;;;;;4941717;29;20604;-78
2024/03/08 06:40:48;;;;;;;20.45;15.20;;;5.10;99.90;;;;;;4961387;28;20295;-79
2024/03/08 06:43:16;;;;;;;19.20;14.50;;;5.10;99.90;;;;;;4910672;29;20219;-77
2024/03/08 06:45:48;;;;;;;25.83;17.55;;;5.10;99.90;;;;;;4944045;28;20173;-77
2024/03/08 06:48:17;;;;;;;20.20;15.20;;;5.10;99.90;;;;;;4931699;29;20184;-77
2024/03/08 06:50:47;;;;;;;19.95;16.13;;;5.20;99.90;;;;;;4939916;29;20181;-78
2024/03/08 06:53:13;;;;;;;14.90;11.48;;;5.20;99.90;;;;;;4940226;29;20263;-77
2024/03/08 06:55:42;;;;;;;22.95;17.58;;;5.30;99.90;;;;;;4901085;29;20208;-77
2024/03/08 06:58:10;;;;;;;20.83;15.40;;;5.30;99.90;;;;;;4931608;29;20188;-78
2024/03/08 07:00:37;;;;;;;20.77;15.55;;;5.40;99.90;;;;;;4915777;29;20572;-79
2024/03/08 07:03:03;;;;;;;22.95;16.50;;;5.40;99.90;;;;;;4940224;29;20215;-77
2024/03/08 07:05:30;;;;;;;20.98;16.17;;;5.50;99.90;;;;;;4938933;29;20176;-78
2024/03/08 07:08:06;;;;;;;20.20;16.10;;;5.50;99.90;;;;;;4937631;29;20192;-78
2024/03/08 07:10:32;;;;;;;19.63;15.10;;;5.60;99.90;;;;;;4935262;29;20169;-78
2024/03/08 07:12:57;;;;;;;19.30;15.03;;;5.60;99.90;;;;;;4927979;29;20209;-79
2024/03/08 07:15:23;;;;;;;18.20;12.93;;;5.70;99.90;;;;;;4916186;29;20585;-80
2024/03/08 07:17:52;;;;;;;22.50;16.37;;;5.80;99.90;;;;;;4927805;29;20196;-79
2024/03/08 07:20:19;;;;;;;21.17;15.80;;;5.80;99.90;;;;;;4931822;29;20219;-79
2024/03/08 07:22:50;;;;;;;21.50;15.25;;;5.80;99.90;;;;;;4944257;29;20273;-80
2024/03/08 07:25:20;;;;;;;19.65;15.70;;;5.90;99.90;;;;;;4916539;29;20180;-79
2024/03/08 07:27:53;;;;;;;22.95;17.55;;;5.90;99.90;;;;;;4945769;29;20199;-78
2024/03/08 07:33:11;;;;;;;23.15;15.95;;;6.10;99.90;;;;;;4932933;29;20288;-78
2024/03/08 07:35:40;;;;;;;23.05;17.38;;;6.20;99.90;;;;;;4933401;29;20731;-79
2024/03/08 07:38:08;;;;;;;25.55;18.13;;;6.30;99.90;;;;;;4932814;29;20188;-78
2024/03/08 07:40:44;;;;;;;21.48;17.02;;;6.40;99.90;;;;;;4915977;29;20208;-78
2024/03/08 07:43:12;;;;;;;23.55;15.10;;;6.40;99.90;;;;;;4933295;29;20217;-77
2024/03/08 07:45:38;;;;;;;20.08;14.95;;;6.50;99.90;;;;;;4932021;29;20181;-78
2024/03/08 07:48:09;;;;;;;23.80;16.77;;;6.60;99.90;;;;;;4931438;29;20181;-78
2024/03/08 07:50:39;;;;;;;22.20;17.70;;;6.70;99.90;;;;;;4930825;29;20721;-79
2024/03/08 07:53:06;;;;;;;24.98;16.48;;;6.80;99.90;;;;;;4931815;28;20284;-77
2024/03/08 07:55:33;;;;;;;20.67;15.27;;;6.90;99.90;;;;;;4934251;29;20252;-77
2024/03/08 07:57:59;;;;;;;23.73;18.10;;;7.00;99.90;;;;;;4900656;29;20328;-77
2024/03/08 08:00:27;;;;;;;21.95;18.45;;;7.10;99.90;;;;;;4932998;29;20205;-77
2024/03/08 08:02:53;;;;;;;24.02;17.10;;;7.20;99.90;;;;;;4945906;28;20678;-77
2024/03/08 08:05:19;;;;;;;22.80;17.40;;;7.40;99.90;;;;;;4916411;29;20220;-78
2024/03/08 08:07:46;;;;;;;22.00;18.00;;;7.80;99.90;;;;;;4932913;29;20650;-77
2024/03/08 08:10:21;;;;;;;22.80;18.13;;;8.30;99.90;;;;;;4931183;29;20596;-77
2024/03/08 08:12:48;;;;;;;23.30;17.52;;;8.90;99.90;;;;;;4932361;29;20200;-77
2024/03/08 08:15:14;;;;;;;17.85;14.85;;;9.60;99.90;;;;;;4931193;29;20173;-77
2024/03/08 08:17:44;;;;;;;21.23;16.67;;;10.40;99.90;;;;;;4915213;29;20656;-77
2024/03/08 08:20:12;;;;;;;17.90;14.83;;;11.10;99.90;;;;;;4931333;29;20750;-77
2024/03/08 08:22:39;;;;;;;18.83;14.60;;;11.60;99.90;;;;;;4930732;29;20592;-78
2024/03/08 08:25:06;;;;;;;18.00;15.00;;;12.40;99.90;;;;;;4930352;29;20601;-77
2024/03/08 08:27:31;;;;;;;13.73;11.83;;;13.20;99.90;;;;;;4931053;29;20588;-79
2024/03/08 08:29:57;;;;;;;17.20;14.30;;;14.10;99.90;;;;;;4913454;29;20601;-78
2024/03/08 08:32:23;;;;;;;17.33;15.50;;;14.50;99.20;;;;;;4939802;23;20229;-76
2024/03/08 08:34:49;;;;;;;19.07;16.40;;;14.90;93.30;;;;;;4917142;29;20181;-76
2024/03/08 08:37:16;;;;;;;17.10;14.60;;;15.10;94.60;;;;;;4916928;29;20184;-76
2024/03/08 08:39:42;;;;;;;15.97;13.60;;;15.40;92.80;;;;;;4915452;29;20189;-76
2024/03/08 08:42:09;;;;;;;17.07;15.37;;;15.80;94.10;;;;;;4915242;29;21006;-77
2024/03/08 08:44:35;;;;;;;16.97;15.20;;;16.20;90.00;;;;;;4907676;29;20649;-76
2024/03/08 08:47:03;;;;;;;20.87;15.77;;;16.10;83.40;;;;;;4916259;29;20640;-76
2024/03/08 08:49:30;;;;;;;15.07;13.47;;;16.10;82.80;;;;;;4915956;29;21018;-76
2024/03/08 08:51:58;;;;;;;15.20;13.00;;;16.30;87.40;;;;;;4930774;29;20644;-76
2024/03/08 08:54:24;;;;;;;15.17;13.67;;;16.60;85.00;;;;;;4915313;29;20618;-76
2024/03/08 08:56:51;;;;;;;14.80;13.00;;;16.60;82.10;;;;;;4916521;29;20605;-77
2024/03/08 08:59:19;;;;;;;15.87;14.23;;;16.60;84.40;;;;;;4914212;29;20615;-76
2024/03/08 09:01:48;;;;;;;16.00;13.80;;;16.60;80.50;;;;;;4901727;29;20654;-76
2024/03/08 09:04:16;;;;;;;15.90;14.23;;;16.80;71.30;;;;;;4903775;29;20581;-76
2024/03/08 09:06:42;;;;;;;15.80;13.90;;;17.20;75.10;;;;;;4915881;29;20586;-76
2024/03/08 09:09:13;;;;;;;15.47;13.73;;;17.30;72.10;;;;;;4917085;29;20601;-76
2024/03/08 09:11:41;;;;;;;19.37;14.87;;;17.60;72.20;;;;;;4915098;29;20235;-76
2024/03/08 09:14:07;;;;;;;14.53;13.03;;;17.70;69.30;;;;;;4924270;29;20651;-77
2024/03/08 09:16:33;;;;;;;16.07;14.47;;;17.80;72.50;;;;;;4908327;29;20594;-76
2024/03/08 09:18:59;;;;;;;14.47;13.07;;;18.40;68.40;;;;;;4928469;29;20596;-76
2024/03/08 09:21:27;;;;;;;13.90;11.80;;;18.20;63.90;;;;;;4922777;29;20213;-76
2024/03/08 09:23:53;;;;;;;15.23;13.33;;;18.10;65.90;;;;;;4927014;29;20590;-75
2024/03/08 09:26:19;;;;;;;15.07;13.37;;;18.20;62.90;;;;;;4916436;29;20582;-75
2024/03/08 09:28:45;;;;;;;14.53;12.97;;;18.10;62.50;;;;;;4915464;29;20589;-75
2024/03/08 09:31:11;;;;;;;14.43;12.93;;;18.30;64.40;;;;;;4922385;29;20780;-75
2024/03/08 09:33:39;;;;;;;13.93;12.53;;;18.50;63.70;;;;;;4916377;29;21192;-75
2024/03/08 09:36:07;;;;;;;13.30;12.10;;;18.60;64.10;;;;;;4915117;29;20588;-75
2024/03/08 09:38:34;;;;;;;14.60;12.37;;;18.80;65.60;;;;;;4922163;29;20612;-75
2024/03/08 09:41:01;;;;;;;14.73;13.13;;;19.40;66.30;;;;;;4929525;29;20663;-75
2024/03/08 09:43:28;;;;;;;13.13;11.83;;;19.50;60.30;;;;;;4915574;29;20578;-75
2024/03/08 09:45:55;;;;;;;13.40;12.00;;;19.50;58.80;;;;;;4914806;29;20650;-75
2024/03/08 09:48:22;;;;;;;13.53;12.23;;;19.40;57.90;;;;;;4915783;29;20588;-76
2024/03/08 09:50:49;;;;;;;12.00;10.63;;;19.50;61.20;;;;;;4916222;29;20604;-76
2024/03/08 09:53:15;;;;;;;13.67;11.30;;;19.90;62.70;;;;;;4917047;29;20605;-76
2024/03/08 09:55:44;;;;;;;11.83;10.63;;;20.30;61.60;;;;;;4915512;29;20590;-76
2024/03/08 10:00:47;;;;;;;12.40;10.63;;;20.70;56.40;;;;;;4908878;29;20811;-75
2024/03/08 10:03:14;;;;;;;12.27;11.07;;;20.60;57.10;;;;;;4916183;29;20613;-77
2024/03/08 10:05:41;;;;;;;10.57;9.57;;;20.60;57.70;;;;;;4914820;29;20649;-76
2024/03/08 10:08:08;;;;;;;12.87;11.47;;;20.70;56.80;;;;;;4914107;29;20590;-76
2024/03/08 10:10:39;;;;;;;9.70;8.70;;;20.50;51.50;;;;;;4914537;29;20586;-72
2024/03/08 10:13:09;;;;;;;15.60;10.37;;;20.30;52.70;;;;;;4909619;29;20609;-73
2024/03/08 10:15:36;;;;;;;11.80;8.57;;;20.10;52.60;;;;;;4914838;29;21159;-74
2024/03/08 10:18:02;;;;;;;9.10;8.03;;;20.20;55.50;;;;;;4914887;29;20608;-74
2024/03/08 10:20:33;;;;;;;11.03;9.90;;;20.60;57.30;;;;;;4914088;29;21043;-75
2024/03/08 10:23:04;;;;;;;11.80;9.20;;;20.70;54.40;;;;;;4913809;29;20637;-75
2024/03/08 10:25:31;;;;;;;11.03;9.87;;;20.80;51.40;;;;;;4913559;29;20594;-75
2024/03/08 10:27:56;;;;;;;11.13;10.03;;;20.30;50.40;;;;;;4914741;29;20590;-76
2024/03/08 10:30:23;;;;;;;11.60;7.77;;;20.30;51.40;;;;;;4897065;29;20612;-75
2024/03/08 10:32:49;;;;;;;9.47;8.43;;;20.10;51.30;;;;;;4897300;29;20225;-75
2024/03/08 10:35:16;;;;;;;7.70;6.93;;;20.00;51.80;;;;;;4911581;29;20605;-75
2024/03/08 10:37:47;;;;;;;8.20;6.80;;;20.00;52.60;;;;;;4915128;29;20592;-76
2024/03/08 10:40:20;;;;;;;11.70;7.80;;;20.00;50.60;;;;;;4926584;29;20692;-76
2024/03/08 10:42:52;;;;;;;8.17;6.60;;;19.70;50.60;;;;;;4912197;29;20617;-76
2024/03/08 10:45:37;;;;;;;7.87;6.30;;;19.40;48.40;;;;;;4911313;29;20594;-76
2024/03/08 10:48:32;;;;;;;10.00;7.63;;;19.00;47.10;;;;;;4895286;29;20604;-76
2024/03/08 10:51:05;;;;;;;8.77;7.87;;;19.00;48.80;;;;;;4906560;29;20629;-75
2024/03/08 10:53:31;;;;;;;7.20;6.50;;;18.40;48.10;;;;;;4911353;29;20653;-76
2024/03/08 10:55:57;;;;;;;8.33;7.53;;;18.30;50.50;;;;;;4913011;29;21270;-76
2024/03/08 10:58:28;;;;;;;8.53;7.37;;;18.40;50.80;;;;;;4912257;29;20276;-76
2024/03/08 11:00:55;;;;;;;9.63;6.70;;;18.50;50.60;;;;;;4914200;29;21173;-76
2024/03/08 11:03:40;;;;;;;8.40;6.10;;;18.80;51.00;;;;;;4912834;29;20655;-75
2024/03/08 11:06:15;;;;;;;8.00;7.17;;;18.60;49.50;;;;;;4914543;29;20586;-76
2024/03/08 11:08:41;;;;;;;8.13;7.10;;;18.90;50.00;;;;;;4906142;29;20581;-76
2024/03/08 11:11:27;;;;;;;9.83;7.90;;;18.90;48.80;;;;;;4912592;29;20720;-74
2024/03/08 11:13:54;;;;;;;8.73;7.60;;;18.60;47.40;;;;;;4912541;29;20688;-75
2024/03/08 11:16:40;;;;;;;8.50;7.60;;;18.10;46.00;;;;;;4915753;29;20590;-75
2024/03/08 11:19:23;;;;;;;9.10;7.57;;;17.90;48.40;;;;;;4920798;29;21067;-75
2024/03/08 11:21:57;;;;;;;8.00;7.20;;;17.60;47.10;;;;;;4912873;29;20763;-75
2024/03/08 11:24:23;;;;;;;8.60;7.70;;;17.50;48.60;;;;;;4912208;29;20589;-75
2024/03/08 11:26:54;;;;;;;8.40;7.60;;;17.80;48.10;;;;;;4928291;29;20590;-75
2024/03/08 11:29:35;;;;;;;7.97;7.17;;;17.60;47.60;;;;;;4912568;29;20593;-75
2024/03/08 11:32:11;;;;;;;10.17;7.40;;;17.60;49.20;;;;;;4908453;29;20637;-75
2024/03/08 11:34:46;;;;;;;8.40;7.50;;;17.50;48.70;;;;;;4912339;29;20577;-75
2024/03/08 11:37:20;;;;;;;11.00;9.40;;;17.20;48.50;;;;;;4928264;29;20600;-75
2024/03/08 11:39:58;;;;;;;10.33;8.97;;;17.30;48.50;;;;;;4912070;29;20689;-75
2024/03/08 11:42:28;;;;;;;9.33;8.13;;;17.00;47.00;;;;;;4896592;29;20976;-75
2024/03/08 11:44:54;;;;;;;8.47;7.20;;;16.90;47.80;;;;;;4906379;29;20622;-75
2024/03/08 11:47:20;;;;;;;7.85;7.05;;;16.80;48.70;;;;;;4913567;29;20724;-76
2024/03/08 11:49:48;;;;;;;8.70;7.80;;;16.80;49.30;;;;;;4912136;29;20202;-75
2024/03/08 11:52:15;;;;;;;9.90;8.60;;;17.00;49.90;;;;;;4913750;29;20621;-73
2024/03/08 11:54:54;;;;;;;10.70;8.47;;;17.20;49.40;;;;;;4911266;29;20597;-74
2024/03/08 11:57:21;;;;;;;9.40;8.33;;;17.30;48.60;;;;;;4912455;29;20630;-74
2024/03/08 11:59:56;;;;;;;8.10;6.70;;;17.00;48.80;;;;;;4913239;29;20601;-74
2024/03/08 12:02:22;;;;;;;11.18;9.00;;;16.90;49.60;;;;;;4912573;29;20757;-75
2024/03/08 12:05:00;;;;;;;11.82;9.25;;;17.00;49.30;;;;;;4915729;29;20586;-74
2024/03/08 12:07:27;;;;;;;10.10;8.67;;;16.70;48.00;;;;;;4900125;29;20177;-74
2024/03/08 12:10:18;;;;;;;12.03;9.03;;;16.40;48.70;;;;;;4916828;29;20935;-75
2024/03/08 12:12:51;;;;;;;9.20;7.63;;;16.50;49.70;;;;;;4915770;29;20633;-74
2024/03/08 12:15:18;;;;;;;8.30;7.10;;;16.80;50.10;;;;;;4931577;29;20979;-74
2024/03/08 12:17:47;;;;;;;8.83;7.37;;;16.80;50.30;;;;;;4917143;29;20573;-74
2024/03/08 12:20:23;;;;;;;8.17;7.30;;;16.90;48.80;;;;;;4916479;29;21063;-74
2024/03/08 12:22:52;;;;;;;8.33;7.20;;;16.90;49.00;;;;;;4916727;29;20609;-74
2024/03/08 12:25:20;;;;;;;10.57;8.00;;;16.60;48.60;;;;;;4917013;29;20589;-75
2024/03/08 12:27:46;;;;;;;10.50;7.33;;;16.50;49.10;;;;;;4915843;29;20681;-75
2024/03/08 12:30:33;;;;;;;8.20;7.40;;;16.50;49.20;;;;;;4920083;29;20601;-74
2024/03/08 12:33:00;;;;;;;9.00;7.20;;;16.60;49.40;;;;;;4917236;29;20597;-74
2024/03/08 12:35:28;;;;;;;7.90;6.30;;;16.70;49.40;;;;;;4899524;29;20647;-75
2024/03/08 12:37:56;;;;;;;8.83;7.53;;;16.80;49.50;;;;;;4916745;29;20589;-75
2024/03/08 12:40:31;;;;;;;9.10;7.67;;;16.80;48.00;;;;;;4914513;29;21357;-75
2024/03/08 12:43:00;;;;;;;7.40;6.67;;;16.50;47.80;;;;;;4916553;29;20966;-74
2024/03/08 12:45:27;;;;;;;8.10;6.30;;;16.50;49.40;;;;;;4893944;29;20603;-75